sensor_id;sensor_type;location;lat;lon;timestamp;P1;durP1;ratioP1;P2;durP2;ratioP2
43319;SDS011;28914;48.722;9.332;2023-04-08T00:01:47;4.80;;;4.30;;
43319;SDS011;28914;48.722;9.332;2023-04-08T00:07:06;5.87;;;5.27;;
43319;SDS011;28914;48.722;9.332;2023-04-08T00:12:26;4.90;;;4.40;;
43319;SDS011;28914;48.722;9.332;2023-04-08T00:17:45;5.77;;;5.27;;
43319;SDS011;28914;48.722;9.332;2023-04-08T00:23:04;6.20;;;5.40;;
43319;SDS011;28914;48.722;9.332;2023-04-08T00:28:23;7.63;;;5.47;;
43319;SDS011;28914;48.722;9.332;2023-04-08T00:33:43;6.60;;;5.63;;
43319;SDS011;28914;48.722;9.332;2023-04-08T00:39:03;6.10;;;5.50;;
43319;SDS011;28914;48.722;9.332;2023-04-08T00:44:24;6.57;;;5.97;;
43319;SDS011;28914;48.722;9.332;2023-04-08T00:49:43;7.07;;;6.37;;
43319;SDS011;28914;48.722;9.332;2023-04-08T00:55:02;6.13;;;5.30;;
43319;SDS011;28914;48.722;9.332;2023-04-08T01:00:22;8.23;;;7.43;;
43319;SDS011;28914;48.722;9.332;2023-04-08T01:11:21;6.97;;;6.30;;
43319;SDS011;28914;48.722;9.332;2023-04-08T01:16:40;8.60;;;6.80;;
43319;SDS011;28914;48.722;9.332;2023-04-08T01:22:22;7.80;;;7.00;;
43319;SDS011;28914;48.722;9.332;2023-04-08T01:28:01;7.00;;;6.30;;
43319;SDS011;28914;48.722;9.332;2023-04-08T01:33:23;9.20;;;7.30;;
43319;SDS011;28914;48.722;9.332;2023-04-08T01:38:45;8.00;;;7.20;;
43319;SDS011;28914;48.722;9.332;2023-04-08T01:44:05;7.90;;;6.00;;
43319;SDS011;28914;48.722;9.332;2023-04-08T01:49:25;6.10;;;5.50;;
43319;SDS011;28914;48.722;9.332;2023-04-08T01:54:45;7.10;;;6.40;;
43319;SDS011;28914;48.722;9.332;2023-04-08T02:00:05;8.07;;;6.80;;
43319;SDS011;28914;48.722;9.332;2023-04-08T02:05:26;6.40;;;5.80;;
43319;SDS011;28914;48.722;9.332;2023-04-08T02:10:45;7.23;;;6.40;;
43319;SDS011;28914;48.722;9.332;2023-04-08T02:21:37;7.47;;;6.70;;
43319;SDS011;28914;48.722;9.332;2023-04-08T02:27:06;7.57;;;6.87;;
43319;SDS011;28914;48.722;9.332;2023-04-08T02:32:28;7.30;;;6.60;;
43319;SDS011;28914;48.722;9.332;2023-04-08T02:37:50;8.10;;;7.40;;
43319;SDS011;28914;48.722;9.332;2023-04-08T02:43:09;5.50;;;5.00;;
43319;SDS011;28914;48.722;9.332;2023-04-08T02:48:29;9.13;;;6.60;;
43319;SDS011;28914;48.722;9.332;2023-04-08T02:53:48;7.60;;;6.90;;
43319;SDS011;28914;48.722;9.332;2023-04-08T02:59:07;7.37;;;6.67;;
43319;SDS011;28914;48.722;9.332;2023-04-08T03:04:27;6.77;;;5.67;;
43319;SDS011;28914;48.722;9.332;2023-04-08T03:09:46;7.50;;;6.73;;
43319;SDS011;28914;48.722;9.332;2023-04-08T03:15:06;6.30;;;5.70;;
43319;SDS011;28914;48.722;9.332;2023-04-08T03:20:25;6.30;;;5.63;;
43319;SDS011;28914;48.722;9.332;2023-04-08T03:25:44;6.43;;;5.67;;
43319;SDS011;28914;48.722;9.332;2023-04-08T03:31:04;7.03;;;6.33;;
43319;SDS011;28914;48.722;9.332;2023-04-08T03:36:24;8.43;;;7.53;;
43319;SDS011;28914;48.722;9.332;2023-04-08T03:41:44;7.73;;;7.00;;
43319;SDS011;28914;48.722;9.332;2023-04-08T03:47:03;7.97;;;6.70;;
43319;SDS011;28914;48.722;9.332;2023-04-08T03:52:23;6.80;;;5.83;;
43319;SDS011;28914;48.722;9.332;2023-04-08T03:57:43;7.53;;;6.70;;
43319;SDS011;28914;48.722;9.332;2023-04-08T04:03:03;6.83;;;5.90;;
43319;SDS011;28914;48.722;9.332;2023-04-08T04:08:22;7.50;;;6.73;;
43319;SDS011;28914;48.722;9.332;2023-04-08T04:13:41;7.50;;;6.70;;
43319;SDS011;28914;48.722;9.332;2023-04-08T04:19:00;8.20;;;7.40;;
43319;SDS011;28914;48.722;9.332;2023-04-08T04:24:20;7.90;;;6.50;;
43319;SDS011;28914;48.722;9.332;2023-04-08T04:29:39;7.90;;;7.17;;
43319;SDS011;28914;48.722;9.332;2023-04-08T04:34:58;7.60;;;6.83;;
43319;SDS011;28914;48.722;9.332;2023-04-08T04:40:17;8.33;;;7.43;;
43319;SDS011;28914;48.722;9.332;2023-04-08T04:45:37;9.30;;;7.87;;
43319;SDS011;28914;48.722;9.332;2023-04-08T04:50:56;9.20;;;8.10;;
43319;SDS011;28914;48.722;9.332;2023-04-08T04:56:17;8.70;;;7.63;;
43319;SDS011;28914;48.722;9.332;2023-04-08T05:01:36;11.00;;;8.37;;
43319;SDS011;28914;48.722;9.332;2023-04-08T05:06:57;8.37;;;7.53;;
43319;SDS011;28914;48.722;9.332;2023-04-08T05:12:17;10.17;;;8.40;;
43319;SDS011;28914;48.722;9.332;2023-04-08T05:17:38;11.23;;;7.63;;
43319;SDS011;28914;48.722;9.332;2023-04-08T05:22:57;10.50;;;9.43;;
43319;SDS011;28914;48.722;9.332;2023-04-08T05:28:17;9.97;;;8.63;;
43319;SDS011;28914;48.722;9.332;2023-04-08T05:33:36;10.10;;;8.00;;
43319;SDS011;28914;48.722;9.332;2023-04-08T05:38:55;10.90;;;9.43;;
43319;SDS011;28914;48.722;9.332;2023-04-08T05:44:14;9.73;;;8.27;;
43319;SDS011;28914;48.722;9.332;2023-04-08T05:49:34;10.20;;;8.87;;
43319;SDS011;28914;48.722;9.332;2023-04-08T05:54:53;11.70;;;9.70;;
43319;SDS011;28914;48.722;9.332;2023-04-08T06:00:13;11.07;;;9.30;;
43319;SDS011;28914;48.722;9.332;2023-04-08T06:05:32;12.60;;;10.80;;
43319;SDS011;28914;48.722;9.332;2023-04-08T06:10:51;12.10;;;10.20;;
43319;SDS011;28914;48.722;9.332;2023-04-08T06:16:11;12.27;;;11.07;;
43319;SDS011;28914;48.722;9.332;2023-04-08T06:21:31;12.37;;;10.40;;
43319;SDS011;28914;48.722;9.332;2023-04-08T06:26:50;10.70;;;9.60;;
43319;SDS011;28914;48.722;9.332;2023-04-08T06:32:11;11.60;;;10.30;;
43319;SDS011;28914;48.722;9.332;2023-04-08T06:37:30;10.30;;;9.00;;
43319;SDS011;28914;48.722;9.332;2023-04-08T06:42:50;10.90;;;9.80;;
43319;SDS011;28914;48.722;9.332;2023-04-08T06:48:09;8.67;;;7.80;;
43319;SDS011;28914;48.722;9.332;2023-04-08T06:53:29;9.13;;;8.00;;
43319;SDS011;28914;48.722;9.332;2023-04-08T06:58:50;8.23;;;7.40;;
43319;SDS011;28914;48.722;9.332;2023-04-08T07:04:10;9.10;;;8.13;;
43319;SDS011;28914;48.722;9.332;2023-04-08T07:09:29;8.10;;;7.30;;
43319;SDS011;28914;48.722;9.332;2023-04-08T07:14:50;8.67;;;7.80;;
43319;SDS011;28914;48.722;9.332;2023-04-08T07:20:11;7.80;;;6.90;;
43319;SDS011;28914;48.722;9.332;2023-04-08T07:25:32;9.60;;;8.60;;
43319;SDS011;28914;48.722;9.332;2023-04-08T07:30:52;8.20;;;7.40;;
43319;SDS011;28914;48.722;9.332;2023-04-08T07:36:12;10.33;;;8.60;;
43319;SDS011;28914;48.722;9.332;2023-04-08T07:41:31;8.13;;;7.27;;
43319;SDS011;28914;48.722;9.332;2023-04-08T07:46:51;10.70;;;9.60;;
43319;SDS011;28914;48.722;9.332;2023-04-08T07:52:10;7.67;;;6.97;;
43319;SDS011;28914;48.722;9.332;2023-04-08T07:57:29;9.10;;;8.20;;
43319;SDS011;28914;48.722;9.332;2023-04-08T08:02:49;8.27;;;7.47;;
43319;SDS011;28914;48.722;9.332;2023-04-08T08:08:08;7.87;;;7.13;;
43319;SDS011;28914;48.722;9.332;2023-04-08T08:13:29;8.13;;;7.33;;
43319;SDS011;28914;48.722;9.332;2023-04-08T08:18:49;8.67;;;7.87;;
43319;SDS011;28914;48.722;9.332;2023-04-08T08:24:08;7.53;;;6.83;;
43319;SDS011;28914;48.722;9.332;2023-04-08T08:29:28;7.53;;;6.83;;
43319;SDS011;28914;48.722;9.332;2023-04-08T08:34:47;10.33;;;8.00;;
43319;SDS011;28914;48.722;9.332;2023-04-08T08:40:06;7.67;;;6.97;;
43319;SDS011;28914;48.722;9.332;2023-04-08T08:45:26;9.30;;;8.27;;
43319;SDS011;28914;48.722;9.332;2023-04-08T08:50:46;9.00;;;8.10;;
43319;SDS011;28914;48.722;9.332;2023-04-08T08:56:07;8.30;;;7.50;;
43319;SDS011;28914;48.722;9.332;2023-04-08T09:07:09;7.60;;;6.90;;
43319;SDS011;28914;48.722;9.332;2023-04-08T09:12:29;9.40;;;8.50;;
43319;SDS011;28914;48.722;9.332;2023-04-08T09:17:49;9.40;;;8.60;;
43319;SDS011;28914;48.722;9.332;2023-04-08T09:23:08;9.17;;;7.10;;
43319;SDS011;28914;48.722;9.332;2023-04-08T09:28:27;8.00;;;7.30;;
43319;SDS011;28914;48.722;9.332;2023-04-08T09:33:50;9.10;;;8.20;;
43319;SDS011;28914;48.722;9.332;2023-04-08T09:39:11;7.97;;;7.37;;
43319;SDS011;28914;48.722;9.332;2023-04-08T09:44:30;7.77;;;6.97;;
43319;SDS011;28914;48.722;9.332;2023-04-08T09:49:54;7.90;;;7.20;;
43319;SDS011;28914;48.722;9.332;2023-04-08T09:55:16;7.80;;;6.57;;
43319;SDS011;28914;48.722;9.332;2023-04-08T10:00:41;7.43;;;6.83;;
43319;SDS011;28914;48.722;9.332;2023-04-08T10:06:08;6.93;;;6.33;;
43319;SDS011;28914;48.722;9.332;2023-04-08T10:11:29;8.47;;;7.80;;
43319;SDS011;28914;48.722;9.332;2023-04-08T10:16:49;7.40;;;6.80;;
43319;SDS011;28914;48.722;9.332;2023-04-08T10:27:52;8.33;;;7.63;;
43319;SDS011;28914;48.722;9.332;2023-04-08T10:33:12;9.70;;;8.80;;
43319;SDS011;28914;48.722;9.332;2023-04-08T10:38:40;8.87;;;8.07;;
43319;SDS011;28914;48.722;9.332;2023-04-08T10:44:03;8.60;;;7.90;;
43319;SDS011;28914;48.722;9.332;2023-04-08T10:49:22;8.13;;;7.53;;
43319;SDS011;28914;48.722;9.332;2023-04-08T10:54:51;7.80;;;7.20;;
43319;SDS011;28914;48.722;9.332;2023-04-08T11:00:14;7.97;;;7.17;;
43319;SDS011;28914;48.722;9.332;2023-04-08T11:05:36;7.73;;;7.13;;
43319;SDS011;28914;48.722;9.332;2023-04-08T11:10:56;6.70;;;6.10;;
43319;SDS011;28914;48.722;9.332;2023-04-08T11:16:16;7.27;;;6.67;;
43319;SDS011;28914;48.722;9.332;2023-04-08T11:21:37;6.60;;;6.10;;
43319;SDS011;28914;48.722;9.332;2023-04-08T11:26:57;10.63;;;9.40;;
43319;SDS011;28914;48.722;9.332;2023-04-08T11:32:16;9.40;;;8.40;;
43319;SDS011;28914;48.722;9.332;2023-04-08T11:37:37;6.63;;;6.03;;
43319;SDS011;28914;48.722;9.332;2023-04-08T11:42:58;7.23;;;6.63;;
43319;SDS011;28914;48.722;9.332;2023-04-08T11:48:17;6.87;;;6.17;;
43319;SDS011;28914;48.722;9.332;2023-04-08T11:53:36;7.23;;;6.63;;
43319;SDS011;28914;48.722;9.332;2023-04-08T11:58:56;7.33;;;6.67;;
43319;SDS011;28914;48.722;9.332;2023-04-08T12:04:15;6.03;;;5.53;;
43319;SDS011;28914;48.722;9.332;2023-04-08T12:09:34;6.70;;;6.00;;
43319;SDS011;28914;48.722;9.332;2023-04-08T12:14:53;6.53;;;5.90;;
43319;SDS011;28914;48.722;9.332;2023-04-08T12:20:12;7.20;;;6.50;;
43319;SDS011;28914;48.722;9.332;2023-04-08T12:25:32;6.83;;;6.13;;
43319;SDS011;28914;48.722;9.332;2023-04-08T12:30:51;7.10;;;6.40;;
43319;SDS011;28914;48.722;9.332;2023-04-08T12:36:10;6.87;;;6.37;;
43319;SDS011;28914;48.722;9.332;2023-04-08T12:41:30;6.23;;;5.63;;
43319;SDS011;28914;48.722;9.332;2023-04-08T12:46:49;6.10;;;5.57;;
43319;SDS011;28914;48.722;9.332;2023-04-08T12:52:09;7.07;;;6.47;;
43319;SDS011;28914;48.722;9.332;2023-04-08T12:57:28;7.00;;;6.40;;
43319;SDS011;28914;48.722;9.332;2023-04-08T13:02:47;6.70;;;6.10;;
43319;SDS011;28914;48.722;9.332;2023-04-08T13:08:06;7.73;;;7.13;;
43319;SDS011;28914;48.722;9.332;2023-04-08T13:13:26;5.90;;;5.37;;
43319;SDS011;28914;48.722;9.332;2023-04-08T13:18:45;6.90;;;6.20;;
43319;SDS011;28914;48.722;9.332;2023-04-08T13:24:04;7.73;;;6.87;;
43319;SDS011;28914;48.722;9.332;2023-04-08T13:29:24;7.83;;;7.10;;
43319;SDS011;28914;48.722;9.332;2023-04-08T13:34:43;6.33;;;5.80;;
43319;SDS011;28914;48.722;9.332;2023-04-08T13:40:02;7.87;;;6.80;;
43319;SDS011;28914;48.722;9.332;2023-04-08T13:45:22;7.57;;;6.87;;
43319;SDS011;28914;48.722;9.332;2023-04-08T13:50:41;7.00;;;6.40;;
43319;SDS011;28914;48.722;9.332;2023-04-08T13:56:01;7.80;;;6.57;;
43319;SDS011;28914;48.722;9.332;2023-04-08T14:01:20;6.73;;;6.03;;
43319;SDS011;28914;48.722;9.332;2023-04-08T14:06:39;6.77;;;6.17;;
43319;SDS011;28914;48.722;9.332;2023-04-08T14:11:58;6.93;;;6.43;;
43319;SDS011;28914;48.722;9.332;2023-04-08T14:17:17;7.00;;;6.30;;
43319;SDS011;28914;48.722;9.332;2023-04-08T14:22:36;7.70;;;6.50;;
43319;SDS011;28914;48.722;9.332;2023-04-08T14:27:56;6.77;;;6.17;;
43319;SDS011;28914;48.722;9.332;2023-04-08T14:33:15;6.83;;;6.23;;
43319;SDS011;28914;48.722;9.332;2023-04-08T14:38:34;7.13;;;6.00;;
43319;SDS011;28914;48.722;9.332;2023-04-08T14:43:54;6.20;;;5.60;;
43319;SDS011;28914;48.722;9.332;2023-04-08T14:49:13;7.80;;;5.83;;
43319;SDS011;28914;48.722;9.332;2023-04-08T14:54:32;6.33;;;5.83;;
43319;SDS011;28914;48.722;9.332;2023-04-08T14:59:51;5.83;;;5.33;;
43319;SDS011;28914;48.722;9.332;2023-04-08T15:05:11;5.93;;;5.43;;
43319;SDS011;28914;48.722;9.332;2023-04-08T15:10:31;6.87;;;4.73;;
43319;SDS011;28914;48.722;9.332;2023-04-08T15:15:50;4.80;;;4.20;;
43319;SDS011;28914;48.722;9.332;2023-04-08T15:21:09;4.70;;;4.23;;
43319;SDS011;28914;48.722;9.332;2023-04-08T15:26:28;6.50;;;4.90;;
43319;SDS011;28914;48.722;9.332;2023-04-08T15:31:48;5.70;;;4.53;;
43319;SDS011;28914;48.722;9.332;2023-04-08T15:37:07;4.93;;;4.13;;
43319;SDS011;28914;48.722;9.332;2023-04-08T15:42:27;4.10;;;3.43;;
43319;SDS011;28914;48.722;9.332;2023-04-08T15:47:46;2.93;;;2.63;;
43319;SDS011;28914;48.722;9.332;2023-04-08T15:53:05;3.50;;;2.90;;
43319;SDS011;28914;48.722;9.332;2023-04-08T15:58:24;3.93;;;3.60;;
43319;SDS011;28914;48.722;9.332;2023-04-08T16:03:43;3.47;;;3.17;;
43319;SDS011;28914;48.722;9.332;2023-04-08T16:09:03;3.90;;;2.30;;
43319;SDS011;28914;48.722;9.332;2023-04-08T16:14:22;3.57;;;3.20;;
43319;SDS011;28914;48.722;9.332;2023-04-08T16:19:41;3.60;;;3.30;;
43319;SDS011;28914;48.722;9.332;2023-04-08T16:25:00;2.77;;;2.57;;
43319;SDS011;28914;48.722;9.332;2023-04-08T16:30:20;4.83;;;4.33;;
43319;SDS011;28914;48.722;9.332;2023-04-08T16:35:39;4.50;;;4.10;;
43319;SDS011;28914;48.722;9.332;2023-04-08T16:40:58;3.60;;;3.30;;
43319;SDS011;28914;48.722;9.332;2023-04-08T16:46:17;3.70;;;3.40;;
43319;SDS011;28914;48.722;9.332;2023-04-08T16:51:37;4.60;;;3.67;;
43319;SDS011;28914;48.722;9.332;2023-04-08T16:56:56;5.50;;;5.00;;
43319;SDS011;28914;48.722;9.332;2023-04-08T17:02:15;4.67;;;4.27;;
43319;SDS011;28914;48.722;9.332;2023-04-08T17:07:34;5.47;;;4.97;;
43319;SDS011;28914;48.722;9.332;2023-04-08T17:12:54;6.33;;;5.90;;
43319;SDS011;28914;48.722;9.332;2023-04-08T17:18:15;5.50;;;4.87;;
43319;SDS011;28914;48.722;9.332;2023-04-08T17:23:34;5.57;;;5.07;;
43319;SDS011;28914;48.722;9.332;2023-04-08T17:28:53;8.77;;;7.70;;
43319;SDS011;28914;48.722;9.332;2023-04-08T17:34:13;5.37;;;4.87;;
43319;SDS011;28914;48.722;9.332;2023-04-08T17:39:32;8.17;;;7.37;;
43319;SDS011;28914;48.722;9.332;2023-04-08T17:44:57;7.70;;;7.00;;
43319;SDS011;28914;48.722;9.332;2023-04-08T17:50:19;6.97;;;6.40;;
43319;SDS011;28914;48.722;9.332;2023-04-08T17:55:38;6.53;;;5.93;;
43319;SDS011;28914;48.722;9.332;2023-04-08T18:00:58;7.53;;;6.60;;
43319;SDS011;28914;48.722;9.332;2023-04-08T18:06:17;5.30;;;4.80;;
43319;SDS011;28914;48.722;9.332;2023-04-08T18:11:36;6.90;;;6.20;;
43319;SDS011;28914;48.722;9.332;2023-04-08T18:16:55;5.00;;;4.60;;
43319;SDS011;28914;48.722;9.332;2023-04-08T18:22:15;6.13;;;5.53;;
43319;SDS011;28914;48.722;9.332;2023-04-08T18:27:34;8.17;;;7.37;;
43319;SDS011;28914;48.722;9.332;2023-04-08T18:32:53;4.73;;;4.20;;
43319;SDS011;28914;48.722;9.332;2023-04-08T18:38:13;4.80;;;4.40;;
43319;SDS011;28914;48.722;9.332;2023-04-08T18:43:33;6.53;;;5.13;;
43319;SDS011;28914;48.722;9.332;2023-04-08T18:48:52;6.10;;;5.60;;
43319;SDS011;28914;48.722;9.332;2023-04-08T18:54:11;7.73;;;7.13;;
43319;SDS011;28914;48.722;9.332;2023-04-08T18:59:30;22.10;;;20.40;;
43319;SDS011;28914;48.722;9.332;2023-04-08T19:04:49;24.37;;;22.67;;
43319;SDS011;28914;48.722;9.332;2023-04-08T19:10:09;14.13;;;12.93;;
43319;SDS011;28914;48.722;9.332;2023-04-08T19:15:29;7.20;;;6.57;;
43319;SDS011;28914;48.722;9.332;2023-04-08T19:20:48;7.47;;;6.77;;
43319;SDS011;28914;48.722;9.332;2023-04-08T19:26:07;7.37;;;6.67;;
43319;SDS011;28914;48.722;9.332;2023-04-08T19:31:26;8.07;;;7.40;;
43319;SDS011;28914;48.722;9.332;2023-04-08T19:36:46;7.07;;;6.57;;
43319;SDS011;28914;48.722;9.332;2023-04-08T19:42:05;6.70;;;6.07;;
43319;SDS011;28914;48.722;9.332;2023-04-08T19:47:25;6.10;;;5.60;;
43319;SDS011;28914;48.722;9.332;2023-04-08T19:52:44;5.00;;;4.60;;
43319;SDS011;28914;48.722;9.332;2023-04-08T19:58:04;4.97;;;4.50;;
43319;SDS011;28914;48.722;9.332;2023-04-08T20:03:23;10.03;;;9.03;;
43319;SDS011;28914;48.722;9.332;2023-04-08T20:08:43;8.67;;;6.77;;
43319;SDS011;28914;48.722;9.332;2023-04-08T20:14:03;5.20;;;4.70;;
43319;SDS011;28914;48.722;9.332;2023-04-08T20:19:22;5.40;;;4.90;;
43319;SDS011;28914;48.722;9.332;2023-04-08T20:24:41;5.70;;;5.20;;
43319;SDS011;28914;48.722;9.332;2023-04-08T20:30:01;6.10;;;5.60;;
43319;SDS011;28914;48.722;9.332;2023-04-08T20:35:21;5.80;;;5.30;;
43319;SDS011;28914;48.722;9.332;2023-04-08T20:40:40;5.00;;;4.60;;
43319;SDS011;28914;48.722;9.332;2023-04-08T20:46:01;5.40;;;4.90;;
43319;SDS011;28914;48.722;9.332;2023-04-08T20:51:21;4.63;;;4.23;;
43319;SDS011;28914;48.722;9.332;2023-04-08T20:56:40;4.63;;;4.23;;
43319;SDS011;28914;48.722;9.332;2023-04-08T21:02:00;4.47;;;4.07;;
43319;SDS011;28914;48.722;9.332;2023-04-08T21:07:19;5.33;;;4.83;;
43319;SDS011;28914;48.722;9.332;2023-04-08T21:12:38;5.10;;;4.67;;
43319;SDS011;28914;48.722;9.332;2023-04-08T21:17:58;5.90;;;5.40;;
43319;SDS011;28914;48.722;9.332;2023-04-08T21:23:17;5.83;;;5.33;;
43319;SDS011;28914;48.722;9.332;2023-04-08T21:28:37;5.50;;;5.00;;
43319;SDS011;28914;48.722;9.332;2023-04-08T21:33:57;4.50;;;4.10;;
43319;SDS011;28914;48.722;9.332;2023-04-08T21:39:16;5.80;;;4.90;;
43319;SDS011;28914;48.722;9.332;2023-04-08T21:44:36;5.50;;;4.90;;
43319;SDS011;28914;48.722;9.332;2023-04-08T21:49:55;6.30;;;5.80;;
43319;SDS011;28914;48.722;9.332;2023-04-08T21:55:14;6.60;;;5.90;;
43319;SDS011;28914;48.722;9.332;2023-04-08T22:00:33;7.30;;;6.63;;
43319;SDS011;28914;48.722;9.332;2023-04-08T22:05:53;6.17;;;5.60;;
43319;SDS011;28914;48.722;9.332;2023-04-08T22:11:12;7.17;;;6.40;;
43319;SDS011;28914;48.722;9.332;2023-04-08T22:16:31;8.03;;;6.63;;
43319;SDS011;28914;48.722;9.332;2023-04-08T22:21:51;6.17;;;5.57;;
43319;SDS011;28914;48.722;9.332;2023-04-08T22:27:10;9.73;;;5.63;;
43319;SDS011;28914;48.722;9.332;2023-04-08T22:32:29;6.50;;;5.87;;
43319;SDS011;28914;48.722;9.332;2023-04-08T22:37:49;6.20;;;5.60;;
43319;SDS011;28914;48.722;9.332;2023-04-08T22:43:08;6.67;;;6.07;;
43319;SDS011;28914;48.722;9.332;2023-04-08T22:48:27;7.30;;;6.60;;
43319;SDS011;28914;48.722;9.332;2023-04-08T22:53:47;7.10;;;6.50;;
43319;SDS011;28914;48.722;9.332;2023-04-08T22:59:06;6.80;;;6.20;;
43319;SDS011;28914;48.722;9.332;2023-04-08T23:04:25;7.83;;;7.17;;
43319;SDS011;28914;48.722;9.332;2023-04-08T23:09:44;8.10;;;7.37;;
43319;SDS011;28914;48.722;9.332;2023-04-08T23:15:03;7.57;;;6.87;;
43319;SDS011;28914;48.722;9.332;2023-04-08T23:20:23;7.27;;;6.57;;
43319;SDS011;28914;48.722;9.332;2023-04-08T23:25:42;7.50;;;5.90;;
43319;SDS011;28914;48.722;9.332;2023-04-08T23:31:02;6.50;;;5.93;;
43319;SDS011;28914;48.722;9.332;2023-04-08T23:36:22;6.43;;;5.70;;
43319;SDS011;28914;48.722;9.332;2023-04-08T23:41:41;7.60;;;5.50;;
43319;SDS011;28914;48.722;9.332;2023-04-08T23:47:00;6.70;;;6.00;;
43319;SDS011;28914;48.722;9.332;2023-04-08T23:52:19;7.97;;;7.27;;
43319;SDS011;28914;48.722;9.332;2023-04-08T23:57:41;5.40;;;4.97;;
